Time;durP1;ratioP1;P1;durP2;ratioP2;P2;SDS_P1;SDS_P2;PMS_P1;PMS_P2;Temp;Humidity;BMP_temperature;BMP_pressure;BME280_temperature;BME280_humidity;BME280_pressure;Samples;Min_cycle;Max_cycle;Signal;HPM_P1;HPM_P2
2023/12/09 05:38:21;;;;;;;;;;;;;;;;;;5189106;23;20009;-73
2023/12/09 05:40:48;;;;;;;;;;;;;;;;;;4995413;28;19933;-72
2023/12/09 05:43:15;;;;;;;;;;;;;;;;;;4995646;28;19926;-72
2023/12/09 05:45:42;;;;;;;;;;;;;;;;;;4995493;28;19930;-73
2023/12/09 05:48:09;;;;;;;;;;;;;;;;;;4995134;28;20430;-72
2023/12/09 05:50:36;;;;;;;;;;;;;;;;;;4995426;28;19933;-72
2023/12/09 05:53:02;;;;;;;;;;;;;;;;;;4995810;28;19926;-74
2023/12/09 05:55:29;;;;;;;;;;;;;;;;;;4995342;28;19949;-74
2023/12/09 05:57:56;;;;;;;;;;;;;;;;;;4995180;28;19925;-74
2023/12/09 06:00:23;;;;;;;;;;;;;;;;;;4994966;28;20395;-74
2023/12/09 06:02:50;;;;;;;;;;;;;;;;;;4995275;28;19930;-75
2023/12/09 06:05:17;;;;;;;;;;;;;;;;;;4995200;28;19926;-76
2023/12/09 06:07:44;;;;;;;;;;;;;;;;;;4995471;28;19948;-76
2023/12/09 06:10:11;;;;;;;;;;;;;;;;;;4995139;28;19925;-75
2023/12/09 06:12:38;;;;;;;;;;;;;;;;;;4995251;28;19926;-76
2023/12/09 06:15:04;;;;;;;;;;;;;;;;;;4995224;28;19926;-74
2023/12/09 06:17:31;;;;;;;;;;;;;;;;;;4994970;28;19932;-74
2023/12/09 06:19:58;;;;;;;;;;;;;;;;;;4994955;28;19926;-74
2023/12/09 06:22:25;;;;;;;;;;;;;;;;;;4995112;28;19933;-71
2023/12/09 06:24:52;;;;;;;;;;;;;;;;;;4994489;28;20336;-70
2023/12/09 06:27:19;;;;;;;;;;;;;;;;;;4994753;28;19933;-71
2023/12/09 06:29:46;;;;;;;;;;;;;;;;;;4994811;28;19926;-72
2023/12/09 06:32:13;;;;;;;;;;;;;;;;;;4994817;28;19988;-74
2023/12/09 06:34:40;;;;;;;;;;;;;;;;;;4994965;28;19930;-76
2023/12/09 06:37:07;;;;;;;;;;;;;;;;;;4994726;28;19926;-73
2023/12/09 06:39:34;;;;;;;;;;;;;;;;;;4994318;28;20379;-73
2023/12/09 06:42:01;;;;;;;;;;;;;;;;;;4994660;28;20020;-76
2023/12/09 06:44:28;;;;;;;;;;;;;;;;;;4995220;28;19926;-72
2023/12/09 06:46:55;;;;;;;;;;;;;;;;;;4994560;28;19926;-73
2023/12/09 06:49:22;;;;;;;;;;;;;;;;;;4994818;28;19940;-72
2023/12/09 06:51:49;;;;;;;;;;;;;;;;;;4994816;28;19933;-72
2023/12/09 06:54:16;;;;;;;;;;;;;;;;;;4994790;28;19965;-72
2023/12/09 19:13:15;;;;;;;;;;;;;;;;;;6139560;22;1914306;-73
2023/12/09 19:15:42;;;;;;;;;;;;;;;;;;6248444;23;19926;-71
2023/12/09 19:18:09;;;;;;;;;;;;;;;;;;6248436;23;20350;-71
2023/12/09 19:20:36;;;;;;;;;;;;;;;;;;6248703;23;19927;-71
2023/12/09 19:23:03;;;;;;;;;;;;;;;;;;6221599;23;19920;-71
2023/12/09 19:25:30;;;;;;;;;;;;;;;;;;6218490;23;19924;-71
2023/12/09 19:27:58;;;;;;;;;;;;;;;;;;6218176;23;19920;-69
2023/12/09 19:30:26;;;;;;;;;;;;;;;;;;6218124;23;19920;-69
2023/12/09 19:32:52;;;;;;;;;;;;;;;;;;6217755;23;20366;-69
2023/12/09 19:35:19;;;;;;;;;;;;;;;;;;6218239;23;19930;-71
2023/12/09 19:37:46;;;;;;;;;;;;;;;;;;6218216;23;19920;-69
2023/12/09 19:40:14;;;;;;;;;;;;;;;;;;6218349;23;19919;-70
2023/12/09 19:42:41;;;;;;;;;;;;;;;;;;6218025;23;19923;-70
2023/12/09 19:45:08;;;;;;;;;;;;;;;;;;6217853;23;19923;-72
2023/12/09 19:47:35;;;;;;;;;;;;;;;;;;6217997;23;19920;-70
2023/12/09 19:50:02;;;;;;;;;;;;;;;;;;6217921;23;19920;-69
2023/12/09 19:52:29;;;;;;;;;;;;;;;;;;6217290;23;20354;-70
2023/12/09 19:54:56;;;;;;;;;;;;;;;;;;6218114;23;19920;-70
2023/12/09 19:57:23;;;;;;;;;;;;;;;;;;6217925;23;19920;-69
2023/12/09 19:59:50;;;;;;;;;;;;;;;;;;6218442;23;19946;-68
2023/12/09 20:02:17;;;;;;;;;;;;;;;;;;6218066;23;19927;-70
2023/12/09 20:04:44;;;;;;;;;;;;;;;;;;6218023;23;19979;-70
2023/12/09 20:07:11;;;;;;;;;;;;;;;;;;6218218;23;19920;-70
2023/12/09 20:09:38;;;;;;;;;;;;;;;;;;6218159;23;19926;-69
2023/12/09 20:12:05;;;;;;;;;;;;;;;;;;6217748;23;19927;-69
2023/12/09 20:14:33;;;;;;;;;;;;;;;;;;6245916;23;20312;-69
2023/12/09 20:17:00;;;;;;;;;;;;;;;;;;6248000;23;20343;-70
2023/12/09 20:19:27;;;;;;;;;;;;;;;;;;6248537;23;19920;-68
2023/12/09 20:21:54;;;;;;;;;;;;;;;;;;6247766;22;19927;-69
2023/12/09 20:24:21;;;;;;;;;;;;;;;;;;6248645;23;19920;-69
2023/12/09 20:26:48;;;;;;;;;;;;;;;;;;6248128;23;19919;-69
2023/12/09 20:29:14;;;;;;;;;;;;;;;;;;6248015;23;19942;-69
2023/12/09 20:31:42;;;;;;;;;;;;;;;;;;6247730;22;19919;-69
2023/12/09 20:34:09;;;;;;;;;;;;;;;;;;6247862;23;19930;-69
2023/12/09 20:36:36;;;;;;;;;;;;;;;;;;6247791;23;19919;-69
2023/12/09 20:39:03;;;;;;;;;;;;;;;;;;6247921;23;19926;-69
2023/12/09 20:41:30;;;;;;;;;;;;;;;;;;6247687;22;19923;-69
2023/12/09 20:43:56;;;;;;;;;;;;;;;;;;6247840;23;19927;-69
2023/12/09 20:46:23;;;;;;;;;;;;;;;;;;6247619;23;19919;-69
2023/12/09 20:48:50;;;;;;;;;;;;;;;;;;6247722;23;19924;-70
2023/12/09 20:51:18;;;;;;;;;;;;;;;;;;6247491;22;19919;-69
2023/12/09 20:53:45;;;;;;;;;;;;;;;;;;6248024;23;19969;-69
2023/12/09 20:56:12;;;;;;;;;;;;;;;;;;6247503;23;19946;-69
2023/12/09 20:58:39;;;;;;;;;;;;;;;;;;6247682;23;19927;-69
2023/12/09 21:01:06;;;;;;;;;;;;;;;;;;6247166;22;20332;-69
2023/12/09 21:03:33;;;;;;;;;;;;;;;;;;6247237;23;19920;-69
2023/12/09 21:05:59;;;;;;;;;;;;;;;;;;6247188;23;20313;-69
2023/12/09 21:08:26;;;;;;;;;;;;;;;;;;6247648;23;19924;-69
2023/12/09 21:10:53;;;;;;;;;;;;;;;;;;6246977;23;19920;-69
2023/12/09 21:13:20;;;;;;;;;;;;;;;;;;6247094;22;19924;-68
2023/12/09 21:15:47;;;;;;;;;;;;;;;;;;6247415;23;19919;-69
2023/12/09 21:18:14;;;;;;;;;;;;;;;;;;6247280;23;19927;-70
2023/12/09 21:20:41;;;;;;;;;;;;;;;;;;6247509;23;19920;-69
2023/12/09 21:23:08;;;;;;;;;;;;;;;;;;6247299;22;19998;-69
2023/12/09 21:25:35;;;;;;;;;;;;;;;;;;6255654;23;19926;-69
2023/12/09 21:28:02;;;;;;;;;;;;;;;;;;6263054;23;19927;-69
2023/12/09 21:30:29;;;;;;;;;;;;;;;;;;6258812;23;19960;-68
2023/12/09 21:32:56;;;;;;;;;;;;;;;;;;6257246;22;20343;-68
2023/12/09 21:35:23;;;;;;;;;;;;;;;;;;6253082;23;19920;-68
2023/12/09 21:37:52;;;;;;;;;;;;;;;;;;6246968;23;20212;-68
2023/12/09 21:40:19;;;;;;;;;;;;;;;;;;6247288;23;19923;-69
2023/12/09 21:42:45;;;;;;;;;;;;;;;;;;6247161;22;19926;-68
2023/12/09 21:45:12;;;;;;;;;;;;;;;;;;6247139;23;19920;-69
2023/12/09 21:47:39;;;;;;;;;;;;;;;;;;6247057;23;19919;-68
2023/12/09 21:50:06;;;;;;;;;;;;;;;;;;6247085;23;19920;-69
2023/12/09 21:52:33;;;;;;;;;;;;;;;;;;6247308;22;19919;-69
2023/12/09 21:55:00;;;;;;;;;;;;;;;;;;6246774;23;19919;-70
2023/12/09 21:57:27;;;;;;;;;;;;;;;;;;6246926;23;19926;-71
2023/12/09 21:59:54;;;;;;;;;;;;;;;;;;6247036;23;19919;-70
2023/12/09 22:02:21;;;;;;;;;;;;;;;;;;6246936;22;19923;-70
2023/12/09 22:04:48;;;;;;;;;;;;;;;;;;6246393;23;20374;-70
2023/12/09 22:07:15;;;;;;;;;;;;;;;;;;6246986;23;19927;-70
2023/12/09 22:09:42;;;;;;;;;;;;;;;;;;6246621;23;20373;-70
2023/12/09 22:12:08;;;;;;;;;;;;;;;;;;6246733;22;19923;-70
2023/12/09 22:14:37;;;;;;;;;;;;;;;;;;6246445;23;19919;-70
2023/12/09 22:17:04;;;;;;;;;;;;;;;;;;6247768;23;19999;-70
2023/12/09 22:19:30;;;;;;;;;;;;;;;;;;6248699;23;19927;-70
2023/12/09 22:21:57;;;;;;;;;;;;;;;;;;6248729;22;19919;-70
2023/12/09 22:24:24;;;;;;;;;;;;;;;;;;6248779;23;19920;-70
2023/12/09 22:26:52;;;;;;;;;;;;;;;;;;6248704;23;19946;-69
2023/12/09 22:29:19;;;;;;;;;;;;;;;;;;6248771;23;19926;-69
2023/12/09 22:31:46;;;;;;;;;;;;;;;;;;6248590;22;19919;-69
2023/12/09 22:34:13;;;;;;;;;;;;;;;;;;6248231;23;20268;-69
2023/12/09 22:36:39;;;;;;;;;;;;;;;;;;6248413;23;19919;-69
2023/12/09 22:39:07;;;;;;;;;;;;;;;;;;6248327;23;20335;-69
2023/12/09 22:41:34;;;;;;;;;;;;;;;;;;6248226;22;20397;-68
2023/12/09 22:44:01;;;;;;;;;;;;;;;;;;6248831;23;19924;-69
2023/12/09 22:46:29;;;;;;;;;;;;;;;;;;6248811;23;19920;-69
2023/12/09 22:48:55;;;;;;;;;;;;;;;;;;6248680;23;20240;-70
2023/12/09 22:51:22;;;;;;;;;;;;;;;;;;6248888;22;19935;-69
2023/12/09 22:53:50;;;;;;;;;;;;;;;;;;6248531;23;19927;-70
2023/12/09 22:56:17;;;;;;;;;;;;;;;;;;6248306;23;19919;-69
2023/12/09 22:58:44;;;;;;;;;;;;;;;;;;6248415;23;19919;-70
2023/12/09 23:01:11;;;;;;;;;;;;;;;;;;6247893;22;20345;-70
2023/12/09 23:03:37;;;;;;;;;;;;;;;;;;6248223;23;19920;-70
2023/12/09 23:06:04;;;;;;;;;;;;;;;;;;6247770;23;20315;-69
2023/12/09 23:08:31;;;;;;;;;;;;;;;;;;6248207;23;19927;-69
2023/12/09 23:10:58;;;;;;;;;;;;;;;;;;6248013;22;19920;-69
2023/12/09 23:13:25;;;;;;;;;;;;;;;;;;6248042;23;19920;-69
2023/12/09 23:15:52;;;;;;;;;;;;;;;;;;6248053;23;19920;-70
2023/12/09 23:18:19;;;;;;;;;;;;;;;;;;6248192;23;20267;-70
2023/12/09 23:20:46;;;;;;;;;;;;;;;;;;6248124;23;19926;-70
2023/12/09 23:23:13;;;;;;;;;;;;;;;;;;6247591;22;20234;-70
2023/12/09 23:25:39;;;;;;;;;;;;;;;;;;6248037;23;19919;-70
2023/12/09 23:28:08;;;;;;;;;;;;;;;;;;6247767;23;19926;-70
2023/12/09 23:30:35;;;;;;;;;;;;;;;;;;6248681;23;19919;-70
2023/12/09 23:33:03;;;;;;;;;;;;;;;;;;6247943;22;19919;-70
2023/12/09 23:35:30;;;;;;;;;;;;;;;;;;6247880;23;19919;-70
2023/12/09 23:37:57;;;;;;;;;;;;;;;;;;6247595;23;20362;-70
2023/12/09 23:40:24;;;;;;;;;;;;;;;;;;6248023;23;19919;-70
2023/12/09 23:42:50;;;;;;;;;;;;;;;;;;6247956;22;19919;-70
2023/12/09 23:45:17;;;;;;;;;;;;;;;;;;6248085;23;19926;-70
2023/12/09 23:47:44;;;;;;;;;;;;;;;;;;6247745;23;20278;-70
2023/12/09 23:50:11;;;;;;;;;;;;;;;;;;6248072;23;19927;-69
2023/12/09 23:52:38;;;;;;;;;;;;;;;;;;6247773;22;19920;-69
2023/12/09 23:55:05;;;;;;;;;;;;;;;;;;6247850;23;19942;-69
2023/12/09 23:57:32;;;;;;;;;;;;;;;;;;6247655;23;19927;-70
2023/12/09 23:59:59;;;;;;;;;;;;;;;;;;6248244;23;20346;-70
